createdAt,value
2023-05-09T00:01:14.577Z,58.49
2023-05-09T00:03:36.173Z,57.85
2023-05-09T00:05:57.603Z,57.87
2023-05-09T00:08:19.077Z,57.91
2023-05-09T00:10:40.666Z,58.51
2023-05-09T00:13:02.160Z,59.30
2023-05-09T00:15:24.002Z,58.55
2023-05-09T00:17:45.874Z,58.41
2023-05-09T00:20:11.703Z,58.34
2023-05-09T00:22:33.182Z,58.99
2023-05-09T00:24:54.611Z,58.68
2023-05-09T00:27:16.569Z,58.90
2023-05-09T00:29:38.057Z,58.77
2023-05-09T00:31:59.595Z,58.82
2023-05-09T00:34:21.083Z,58.75
2023-05-09T00:36:42.538Z,58.84
2023-05-09T00:39:03.976Z,59.09
2023-05-09T00:41:25.979Z,59.01
2023-05-09T00:43:47.414Z,59.03
2023-05-09T00:46:09.013Z,59.14
2023-05-09T00:48:30.526Z,59.22
2023-05-09T00:50:53.212Z,59.29
2023-05-09T00:53:14.960Z,59.49
2023-05-09T00:55:36.618Z,60.86
2023-05-09T00:57:58.220Z,60.05
2023-05-09T01:00:19.674Z,60.10
2023-05-09T01:02:42.918Z,60.56
2023-05-09T01:05:04.894Z,60.44
2023-05-09T01:07:52.557Z,60.52
2023-05-09T01:10:54.336Z,60.64
2023-05-09T01:13:27.298Z,60.38
2023-05-09T01:15:59.815Z,60.49
2023-05-09T01:18:40.033Z,60.72
2023-05-09T01:21:08.884Z,61.45
2023-05-09T01:23:59.411Z,61.11
2023-05-09T01:26:57.907Z,61.41
2023-05-09T01:29:44.109Z,61.10
2023-05-09T01:32:11.894Z,61.30
2023-05-09T01:34:35.247Z,61.43
2023-05-09T01:37:00.737Z,61.38
2023-05-09T01:39:25.332Z,61.34
2023-05-09T01:41:46.878Z,61.62
2023-05-09T01:44:11.788Z,61.75
2023-05-09T01:46:35.387Z,61.63
2023-05-09T01:48:57.746Z,61.91
2023-05-09T01:51:21.358Z,63.85
2023-05-09T01:53:45.089Z,64.19
2023-05-09T01:56:09.364Z,63.16
2023-05-09T01:58:33.687Z,62.82
2023-05-09T02:00:55.464Z,62.66
2023-05-09T02:03:17.079Z,62.19
2023-05-09T02:05:39.388Z,61.90
2023-05-09T02:08:01.078Z,61.50
2023-05-09T02:10:22.691Z,63.26
2023-05-09T02:12:44.196Z,62.98
2023-05-09T02:15:06.805Z,63.21
2023-05-09T02:17:30.826Z,63.16
2023-05-09T02:19:52.349Z,62.98
2023-05-09T02:22:14.811Z,62.58
2023-05-09T02:24:36.860Z,62.62
2023-05-09T02:26:58.437Z,62.55
2023-05-09T02:29:23.183Z,62.74
2023-05-09T02:31:47.008Z,62.50
2023-05-09T02:34:09.739Z,62.42
2023-05-09T02:36:32.665Z,62.89
2023-05-09T02:38:54.644Z,63.37
2023-05-09T02:41:17.201Z,64.04
2023-05-09T02:43:38.667Z,63.49
2023-05-09T02:46:00.663Z,63.47
2023-05-09T02:48:22.227Z,63.77
2023-05-09T02:50:44.322Z,63.80
2023-05-09T02:53:06.216Z,63.49
2023-05-09T02:55:28.469Z,63.47
2023-05-09T02:57:56.182Z,63.63
2023-05-09T03:00:25.717Z,63.84
2023-05-09T03:02:47.301Z,63.89
2023-05-09T03:05:09.358Z,63.83
2023-05-09T03:07:31.197Z,63.58
2023-05-09T03:09:52.660Z,63.75
2023-05-09T03:12:14.156Z,63.78
2023-05-09T03:14:35.636Z,63.99
2023-05-09T03:16:57.127Z,64.22
2023-05-09T03:19:18.617Z,63.79
2023-05-09T03:21:40.103Z,64.25
2023-05-09T03:24:01.941Z,63.95
2023-05-09T03:26:23.438Z,63.80
2023-05-09T03:28:46.850Z,63.63
2023-05-09T03:31:08.371Z,63.68
2023-05-09T03:33:30.025Z,64.21
2023-05-09T03:35:51.739Z,64.12
2023-05-09T03:38:13.243Z,63.99
2023-05-09T03:40:34.695Z,63.81
2023-05-09T03:42:56.134Z,63.97
2023-05-09T03:45:17.584Z,63.76
2023-05-09T03:47:39.153Z,64.17
2023-05-09T03:50:00.681Z,64.22
2023-05-09T03:52:22.133Z,64.16
2023-05-09T03:54:43.584Z,63.76
2023-05-09T03:57:05.437Z,63.69
2023-05-09T03:59:26.904Z,63.54
2023-05-09T04:01:48.403Z,63.87
2023-05-09T04:04:10.007Z,63.75
2023-05-09T04:06:31.520Z,63.79
2023-05-09T04:08:53.013Z,63.66
2023-05-09T04:11:14.504Z,64.83
2023-05-09T04:13:36.057Z,64.65
2023-05-09T04:15:57.531Z,65.60
2023-05-09T04:18:19.074Z,65.19
2023-05-09T04:20:40.809Z,64.66
2023-05-09T04:23:02.297Z,64.65
2023-05-09T04:25:23.733Z,64.22
2023-05-09T04:27:45.525Z,64.11
2023-05-09T04:30:07.586Z,64.55
2023-05-09T04:32:29.053Z,64.52
2023-05-09T04:34:50.666Z,66.60
2023-05-09T04:37:13.322Z,65.46
2023-05-09T04:39:34.788Z,65.57
2023-05-09T04:41:56.292Z,64.90
2023-05-09T04:44:18.542Z,67.02
2023-05-09T04:46:40.522Z,67.20
2023-05-09T04:49:02.016Z,68.00
2023-05-09T04:51:23.576Z,68.52
2023-05-09T04:53:45.311Z,70.05
2023-05-09T04:56:07.062Z,69.72
2023-05-09T04:58:28.508Z,69.77
2023-05-09T05:00:50.121Z,70.38
2023-05-09T05:03:11.650Z,70.34
2023-05-09T05:05:35.996Z,68.46
2023-05-09T05:07:58.558Z,68.37
2023-05-09T05:10:20.045Z,68.13
2023-05-09T05:12:41.528Z,67.64
2023-05-09T05:15:03.028Z,67.54
2023-05-09T05:17:24.885Z,66.40
2023-05-09T05:19:46.354Z,65.50
2023-05-09T05:22:07.799Z,65.89
2023-05-09T05:24:29.295Z,66.00
2023-05-09T05:26:50.753Z,65.96
2023-05-09T05:29:12.199Z,64.18
2023-05-09T05:31:33.672Z,63.30
2023-05-09T05:33:55.134Z,63.34
2023-05-09T05:36:16.620Z,63.25
2023-05-09T05:38:38.070Z,62.94
2023-05-09T05:40:59.530Z,61.71
2023-05-09T05:43:21.009Z,61.29
2023-05-09T05:45:42.496Z,62.12
2023-05-09T05:48:04.260Z,61.70
2023-05-09T05:50:25.761Z,62.85
2023-05-09T05:52:47.370Z,62.42
2023-05-09T05:55:09.313Z,62.17
2023-05-09T05:57:31.097Z,62.54
2023-05-09T05:59:52.522Z,62.59
2023-05-09T06:02:14.678Z,61.06
2023-05-09T06:04:36.174Z,60.17
2023-05-09T06:06:58.045Z,60.81
2023-05-09T06:09:19.495Z,60.07
2023-05-09T06:11:40.974Z,60.86
2023-05-09T06:14:02.429Z,61.08
2023-05-09T06:16:23.978Z,60.22
2023-05-09T06:18:45.538Z,60.98
2023-05-09T06:21:07.544Z,60.60
2023-05-09T06:23:29.022Z,60.67
2023-05-09T06:25:50.526Z,61.00
2023-05-09T06:28:11.978Z,60.31
2023-05-09T06:30:33.443Z,60.90
2023-05-09T06:32:55.604Z,60.90
2023-05-09T06:35:17.308Z,60.75
2023-05-09T06:37:38.769Z,60.36
2023-05-09T06:40:00.288Z,59.42
2023-05-09T06:42:21.751Z,59.49
2023-05-09T06:44:43.878Z,59.18
2023-05-09T06:47:05.473Z,59.53
2023-05-09T06:49:26.939Z,58.86
2023-05-09T06:51:48.388Z,60.11
2023-05-09T06:54:10.071Z,59.73
2023-05-09T06:56:31.706Z,58.97
2023-05-09T06:58:53.496Z,58.83
2023-05-09T07:01:15.101Z,59.19
2023-05-09T07:03:36.550Z,58.76
2023-05-09T07:05:59.029Z,58.89
2023-05-09T07:08:20.459Z,61.12
2023-05-09T07:10:41.916Z,60.30
2023-05-09T07:13:03.395Z,60.05
2023-05-09T07:15:37.183Z,58.40
2023-05-09T07:18:02.530Z,59.48
2023-05-09T07:20:23.996Z,61.24
2023-05-09T07:22:45.498Z,59.40
2023-05-09T07:25:08.744Z,58.93
2023-05-09T07:27:30.175Z,60.08
2023-05-09T07:29:52.572Z,58.04
2023-05-09T07:32:14.090Z,57.18
2023-05-09T07:34:36.024Z,56.26
2023-05-09T07:36:58.749Z,56.35
2023-05-09T07:39:20.342Z,56.02
2023-05-09T07:41:42.289Z,57.44
2023-05-09T07:44:03.835Z,56.77
2023-05-09T07:46:25.407Z,55.63
2023-05-09T07:48:47.013Z,55.03
2023-05-09T07:51:08.690Z,55.71
2023-05-09T07:53:30.157Z,54.89
2023-05-09T07:55:52.312Z,55.40
2023-05-09T07:58:14.093Z,53.62
2023-05-09T08:00:36.094Z,54.93
2023-05-09T08:02:57.652Z,55.12
2023-05-09T08:05:19.312Z,53.75
2023-05-09T08:07:40.786Z,54.24
2023-05-09T08:10:02.585Z,50.65
2023-05-09T08:12:24.143Z,49.84
2023-05-09T08:14:45.657Z,48.79
2023-05-09T08:17:07.100Z,50.61
2023-05-09T08:19:28.625Z,51.63
2023-05-09T08:21:50.167Z,49.77
2023-05-09T08:24:11.676Z,49.76
2023-05-09T08:26:33.124Z,49.66
2023-05-09T08:28:54.642Z,50.16
2023-05-09T08:31:16.203Z,51.52
2023-05-09T08:33:39.328Z,49.30
2023-05-09T08:36:02.453Z,49.49
2023-05-09T08:38:24.811Z,48.15
2023-05-09T08:40:46.736Z,48.31
2023-05-09T08:43:09.412Z,47.18
2023-05-09T08:45:32.833Z,49.33
2023-05-09T08:47:55.060Z,47.74
2023-05-09T08:50:17.614Z,48.05
2023-05-09T08:52:39.674Z,47.01
2023-05-09T08:55:04.817Z,47.50
2023-05-09T08:57:27.659Z,47.78
2023-05-09T08:59:49.668Z,46.78
2023-05-09T09:02:14.505Z,46.27
2023-05-09T09:04:36.047Z,45.47
2023-05-09T09:06:58.077Z,46.14
2023-05-09T09:09:21.001Z,44.30
2023-05-09T09:11:43.319Z,42.95
2023-05-09T09:14:25.787Z,42.04
2023-05-09T09:16:48.974Z,41.51
2023-05-09T09:19:13.063Z,41.13
2023-05-09T09:21:34.562Z,40.12
2023-05-09T09:23:56.778Z,40.64
2023-05-09T09:26:18.303Z,39.43
2023-05-09T09:28:40.168Z,39.26
2023-05-09T09:31:01.993Z,39.44
2023-05-09T09:33:24.954Z,38.75
2023-05-09T09:35:48.547Z,37.56
2023-05-09T09:38:10.025Z,37.36
2023-05-09T09:40:31.569Z,37.72
2023-05-09T09:42:53.128Z,37.62
2023-05-09T09:45:19.664Z,37.47
2023-05-09T09:47:43.310Z,37.45
2023-05-09T09:50:11.104Z,37.50
2023-05-09T09:52:32.604Z,36.32
2023-05-09T09:54:57.182Z,36.34
2023-05-09T09:57:37.266Z,36.00
2023-05-09T09:59:59.330Z,36.55
2023-05-09T10:02:23.828Z,36.44
2023-05-09T10:04:45.257Z,35.69
2023-05-09T10:07:12.783Z,35.84
2023-05-09T10:09:40.121Z,35.98
2023-05-09T10:12:06.792Z,35.37
2023-05-09T10:14:32.067Z,35.11
2023-05-09T10:16:56.814Z,34.72
2023-05-09T10:19:20.841Z,35.17
2023-05-09T10:21:43.164Z,35.67
2023-05-09T10:24:05.440Z,35.23
2023-05-09T10:26:32.474Z,36.91
2023-05-09T10:28:56.059Z,35.20
2023-05-09T10:31:29.535Z,36.22
2023-05-09T10:33:52.170Z,34.68
2023-05-09T10:36:20.470Z,34.63
2023-05-09T10:38:42.786Z,35.48
2023-05-09T10:41:05.278Z,35.86
2023-05-09T10:43:27.286Z,35.73
2023-05-09T10:45:49.037Z,34.83
2023-05-09T10:48:11.663Z,35.53
2023-05-09T10:50:33.206Z,36.18
2023-05-09T10:53:14.135Z,35.69
2023-05-09T10:55:50.208Z,34.46
2023-05-09T10:58:26.668Z,34.31
2023-05-09T11:00:50.384Z,35.08
2023-05-09T11:03:11.894Z,34.75
2023-05-09T11:05:39.116Z,34.91
2023-05-09T11:08:20.360Z,34.53
2023-05-09T11:10:42.994Z,33.80
2023-05-09T11:13:04.552Z,33.78
2023-05-09T11:15:27.849Z,33.65
2023-05-09T11:18:09.429Z,33.78
2023-05-09T11:20:34.227Z,32.71
2023-05-09T11:22:57.450Z,33.07
2023-05-09T11:25:28.049Z,34.00
2023-05-09T11:27:50.187Z,32.86
2023-05-09T11:30:14.617Z,33.29
2023-05-09T11:32:48.070Z,32.95
2023-05-09T11:35:14.899Z,31.72
2023-05-09T11:37:47.151Z,32.43
2023-05-09T11:40:12.231Z,31.80
2023-05-09T11:42:33.670Z,31.62
2023-05-09T11:44:56.900Z,31.21
2023-05-09T11:47:18.451Z,29.47
2023-05-09T11:49:43.523Z,30.44
2023-05-09T11:52:05.397Z,30.48
2023-05-09T11:54:26.930Z,29.94
2023-05-09T11:56:48.472Z,30.17
2023-05-09T11:59:13.146Z,29.48
2023-05-09T12:01:36.314Z,29.01
2023-05-09T12:04:02.218Z,27.01
2023-05-09T12:06:24.728Z,26.63
2023-05-09T12:08:49.112Z,26.25
2023-05-09T12:11:11.004Z,25.94
2023-05-09T12:13:32.564Z,27.41
2023-05-09T12:16:01.143Z,26.09
2023-05-09T12:18:24.049Z,25.44
2023-05-09T12:20:52.721Z,26.66
2023-05-09T12:23:15.000Z,26.70
2023-05-09T12:25:36.541Z,26.77
2023-05-09T12:27:58.679Z,26.41
2023-05-09T12:30:20.451Z,27.01
2023-05-09T12:32:43.577Z,26.17
2023-05-09T12:35:07.264Z,26.43
2023-05-09T12:37:32.571Z,25.33
2023-05-09T12:40:05.009Z,25.71
2023-05-09T12:42:29.623Z,25.42
2023-05-09T12:44:51.453Z,25.61
2023-05-09T12:47:13.416Z,23.61
2023-05-09T12:49:36.919Z,24.49
2023-05-09T12:52:03.025Z,24.72
2023-05-09T12:54:27.749Z,23.88
2023-05-09T12:56:52.135Z,22.90
2023-05-09T12:59:15.387Z,23.02
2023-05-09T13:01:36.921Z,22.75
2023-05-09T13:04:03.763Z,22.96
2023-05-09T13:06:25.387Z,23.35
2023-05-09T13:08:57.817Z,22.42
2023-05-09T13:11:20.649Z,22.09
2023-05-09T13:13:42.531Z,22.15
2023-05-09T13:16:06.003Z,21.77
2023-05-09T13:18:28.425Z,20.59
2023-05-09T13:20:52.800Z,21.11
2023-05-09T13:23:14.222Z,20.29
2023-05-09T13:25:35.780Z,20.90
2023-05-09T13:27:57.235Z,20.38
2023-05-09T13:30:19.193Z,20.34
2023-05-09T13:32:40.940Z,20.06
2023-05-09T13:35:02.921Z,20.06
2023-05-09T13:37:24.427Z,21.49
2023-05-09T13:39:46.425Z,21.75
2023-05-09T13:42:08.083Z,20.26
2023-05-09T13:44:29.671Z,20.25
2023-05-09T13:46:51.221Z,19.63
2023-05-09T13:49:12.691Z,19.72
2023-05-09T13:51:34.585Z,19.27
2023-05-09T13:53:56.087Z,19.10
2023-05-09T13:56:17.518Z,19.18
2023-05-09T13:58:39.001Z,19.03
2023-05-09T14:01:00.496Z,19.34
2023-05-09T14:03:21.981Z,19.25
2023-05-09T14:05:43.529Z,19.14
2023-05-09T14:08:05.102Z,19.05
2023-05-09T14:10:27.206Z,18.00
2023-05-09T14:12:48.784Z,18.77
2023-05-09T14:15:11.219Z,18.69
2023-05-09T14:17:32.801Z,18.22
2023-05-09T14:19:54.406Z,19.26
2023-05-09T14:22:16.391Z,19.26
2023-05-09T14:24:37.860Z,19.80
2023-05-09T14:26:59.382Z,20.12
2023-05-09T14:29:21.386Z,20.25
2023-05-09T14:31:42.916Z,18.89
2023-05-09T14:34:05.357Z,19.21
2023-05-09T14:36:28.698Z,19.06
2023-05-09T14:38:50.163Z,18.14
2023-05-09T14:41:11.839Z,17.77
2023-05-09T14:43:33.524Z,18.08
2023-05-09T14:45:55.611Z,17.57
2023-05-09T14:48:17.418Z,18.08
2023-05-09T14:50:39.309Z,18.39
2023-05-09T14:53:01.213Z,17.53
2023-05-09T14:55:23.319Z,17.13
2023-05-09T14:57:45.394Z,17.78
2023-05-09T15:00:19.565Z,17.94
2023-05-09T15:02:43.191Z,17.79
2023-05-09T15:05:04.987Z,16.99
2023-05-09T15:07:26.464Z,17.45
2023-05-09T15:09:47.915Z,16.70
2023-05-09T15:12:09.446Z,17.49
2023-05-09T15:14:31.050Z,16.79
2023-05-09T15:16:53.124Z,17.48
2023-05-09T15:19:14.748Z,17.12
2023-05-09T15:21:36.286Z,16.07
2023-05-09T15:23:58.255Z,16.78
2023-05-09T15:26:19.681Z,17.32
2023-05-09T15:28:41.221Z,16.26
2023-05-09T15:31:03.515Z,16.77
2023-05-09T15:33:25.266Z,15.91
2023-05-09T15:35:46.863Z,16.15
2023-05-09T15:38:12.029Z,16.33
2023-05-09T15:40:33.473Z,16.16
2023-05-09T15:42:54.927Z,16.10
2023-05-09T15:45:16.751Z,15.74
2023-05-09T15:47:38.317Z,16.05
2023-05-09T15:49:59.821Z,16.70
2023-05-09T15:52:21.460Z,16.98
2023-05-09T15:54:45.163Z,17.78
2023-05-09T15:57:07.227Z,17.71
2023-05-09T15:59:28.655Z,16.39
2023-05-09T16:01:50.188Z,16.59
2023-05-09T16:04:11.924Z,16.57
2023-05-09T16:06:33.645Z,15.94
2023-05-09T16:08:55.129Z,16.30
2023-05-09T16:11:16.566Z,15.17
2023-05-09T16:13:38.499Z,16.97
2023-05-09T16:16:00.720Z,16.12
2023-05-09T16:18:22.634Z,16.01
2023-05-09T16:20:44.265Z,16.08
2023-05-09T16:23:05.738Z,16.96
2023-05-09T16:25:27.427Z,17.32
2023-05-09T16:49:05.127Z,21.23
2023-05-09T16:51:26.674Z,21.76
2023-05-09T16:53:48.142Z,20.61
2023-05-09T16:56:11.111Z,21.12
2023-05-09T16:58:32.597Z,22.10
2023-05-09T17:00:55.308Z,22.11
2023-05-09T17:03:16.900Z,22.45
2023-05-09T17:05:38.334Z,21.92
2023-05-09T17:07:59.824Z,20.83
2023-05-09T17:10:21.577Z,21.79
2023-05-09T17:12:43.129Z,20.67
2023-05-09T17:15:08.675Z,20.67
2023-05-09T17:17:30.142Z,20.11
2023-05-09T17:19:51.670Z,22.02
2023-05-09T17:22:13.366Z,21.57
2023-05-09T17:24:34.986Z,21.42
2023-05-09T17:26:56.739Z,22.23
2023-05-09T17:29:18.290Z,23.13
2023-05-09T17:31:39.738Z,23.92
2023-05-09T17:34:01.490Z,24.31
2023-05-09T17:36:23.083Z,24.03
2023-05-09T17:38:44.584Z,24.17
2023-05-09T17:41:07.050Z,25.15
2023-05-09T17:43:28.804Z,25.90
2023-05-09T17:45:53.575Z,26.52
2023-05-09T17:48:15.945Z,27.22
2023-05-09T17:50:37.402Z,26.73
2023-05-09T17:52:58.838Z,27.62
2023-05-09T17:55:20.539Z,27.82
2023-05-09T17:57:43.037Z,28.12
2023-05-09T18:00:08.804Z,27.76
2023-05-09T18:02:30.284Z,27.63
2023-05-09T18:04:52.308Z,28.14
2023-05-09T18:07:14.227Z,28.96
2023-05-09T18:09:35.736Z,29.42
2023-05-09T18:11:57.327Z,29.89
2023-05-09T18:14:18.773Z,30.36
2023-05-09T18:16:40.287Z,30.33
2023-05-09T18:19:01.757Z,29.99
2023-05-09T18:21:23.209Z,29.91
2023-05-09T18:23:44.638Z,29.94
2023-05-09T18:26:06.261Z,30.16
2023-05-09T18:28:28.828Z,31.26
2023-05-09T18:30:54.643Z,30.67
2023-05-09T18:33:16.213Z,31.07
2023-05-09T18:35:37.677Z,31.63
2023-05-09T18:37:59.117Z,31.04
2023-05-09T18:40:20.581Z,31.38
2023-05-09T18:42:42.221Z,30.75
2023-05-09T18:45:05.884Z,31.61
2023-05-09T18:47:28.084Z,31.89
2023-05-09T18:49:49.581Z,31.84
2023-05-09T18:52:11.033Z,32.16
2023-05-09T18:54:32.496Z,32.00
2023-05-09T18:56:53.938Z,32.38
2023-05-09T18:59:16.400Z,32.67
2023-05-09T19:01:38.082Z,33.32
2023-05-09T19:03:59.740Z,33.84
2023-05-09T19:06:21.610Z,33.82
2023-05-09T19:08:43.600Z,34.06
2023-05-09T19:11:05.106Z,34.24
2023-05-09T19:13:26.879Z,34.55
2023-05-09T19:15:48.393Z,34.79
2023-05-09T19:18:09.880Z,35.04
2023-05-09T19:20:31.595Z,35.24
2023-05-09T19:22:53.172Z,35.21
2023-05-09T19:25:14.635Z,35.18
2023-05-09T19:27:36.441Z,34.82
2023-05-09T19:29:59.382Z,35.08
2023-05-09T19:32:20.922Z,35.66
2023-05-09T19:34:42.401Z,35.34
2023-05-09T19:37:03.885Z,35.67
2023-05-09T19:39:25.385Z,35.35
2023-05-09T19:41:46.896Z,35.38
2023-05-09T19:44:08.395Z,34.83
2023-05-09T19:46:29.999Z,34.91
2023-05-09T19:48:51.809Z,34.15
2023-05-09T19:51:15.183Z,34.60
2023-05-09T19:53:36.656Z,34.76
2023-05-09T19:55:58.756Z,35.61
2023-05-09T19:58:20.319Z,35.35
2023-05-09T20:00:41.808Z,35.40
2023-05-09T20:03:04.106Z,35.64
2023-05-09T20:05:25.894Z,36.11
2023-05-09T20:07:47.332Z,36.06
2023-05-09T20:10:09.190Z,37.12
2023-05-09T20:12:30.677Z,37.41
2023-05-09T20:14:52.139Z,37.45
2023-05-09T20:17:13.590Z,37.70
2023-05-09T20:19:35.135Z,37.95
2023-05-09T20:21:56.747Z,37.35
2023-05-09T20:24:19.442Z,36.86
2023-05-09T20:26:40.862Z,36.63
2023-05-09T20:29:02.400Z,36.96
2023-05-09T20:31:23.878Z,37.00
2023-05-09T20:33:45.372Z,37.02
2023-05-09T20:36:09.428Z,38.19
2023-05-09T20:38:30.880Z,37.81
2023-05-09T20:40:52.315Z,38.21
2023-05-09T20:43:13.789Z,38.57
2023-05-09T20:45:37.381Z,38.75
2023-05-09T20:47:59.392Z,39.05
2023-05-09T20:50:21.022Z,39.32
2023-05-09T20:52:42.496Z,39.56
2023-05-09T20:55:04.268Z,39.74
2023-05-09T20:57:25.820Z,39.66
2023-05-09T20:59:47.253Z,39.80
2023-05-09T21:02:08.986Z,39.61
2023-05-09T21:04:30.587Z,40.81
2023-05-09T21:06:52.056Z,40.85
2023-05-09T21:09:13.532Z,40.38
2023-05-09T21:11:35.052Z,40.80
2023-05-09T21:13:56.802Z,39.63
2023-05-09T21:16:18.313Z,39.36
2023-05-09T21:18:39.754Z,39.52
2023-05-09T21:21:02.757Z,39.65
2023-05-09T21:23:24.195Z,38.89
2023-05-09T21:25:45.661Z,38.02
2023-05-09T21:28:07.090Z,38.58
2023-05-09T21:30:28.683Z,38.73
2023-05-09T21:32:51.315Z,38.89
2023-05-09T21:35:13.713Z,38.72
2023-05-09T21:37:35.213Z,38.49
2023-05-09T21:39:57.137Z,38.14
2023-05-09T21:42:18.578Z,38.90
2023-05-09T21:44:40.038Z,38.95
2023-05-09T21:47:01.541Z,38.89
2023-05-09T21:49:23.100Z,38.26
2023-05-09T21:51:44.559Z,38.42
2023-05-09T21:54:06.298Z,38.62
2023-05-09T21:56:27.748Z,38.80
2023-05-09T21:58:49.243Z,38.95
2023-05-09T22:01:10.931Z,38.86
2023-05-09T22:03:32.443Z,39.64
2023-05-09T22:05:53.975Z,38.42
2023-05-09T22:08:15.612Z,39.15
2023-05-09T22:10:37.791Z,39.16
2023-05-09T22:12:59.312Z,38.95
2023-05-09T22:15:20.946Z,38.69
2023-05-09T22:17:42.495Z,38.52
2023-05-09T22:20:04.434Z,39.14
2023-05-09T22:22:26.967Z,39.88
2023-05-09T22:24:49.771Z,39.66
2023-05-09T22:27:11.578Z,39.94
2023-05-09T22:29:34.486Z,39.92
2023-05-09T22:31:55.939Z,39.71
2023-05-09T22:34:17.434Z,40.05
2023-05-09T22:36:38.856Z,40.67
2023-05-09T22:39:00.293Z,40.80
2023-05-09T22:41:22.093Z,40.68
2023-05-09T22:43:43.874Z,42.10
2023-05-09T22:46:05.692Z,40.79
2023-05-09T22:48:27.175Z,41.08
2023-05-09T22:50:48.639Z,41.61
2023-05-09T22:53:10.239Z,42.32
2023-05-09T22:55:31.748Z,41.98
2023-05-09T22:57:53.228Z,42.01
2023-05-09T23:00:15.598Z,42.28
2023-05-09T23:02:37.378Z,42.39
2023-05-09T23:04:59.102Z,42.59
2023-05-09T23:07:20.537Z,42.41
2023-05-09T23:09:42.025Z,42.49
2023-05-09T23:12:03.808Z,42.93
2023-05-09T23:14:25.339Z,43.70
2023-05-09T23:16:46.887Z,43.73
2023-05-09T23:19:08.384Z,43.89
2023-05-09T23:21:29.841Z,43.97
2023-05-09T23:23:51.270Z,44.11
2023-05-09T23:26:12.763Z,44.05
2023-05-09T23:28:34.443Z,44.27
2023-05-09T23:30:55.940Z,44.77
2023-05-09T23:33:18.060Z,45.05
2023-05-09T23:35:39.497Z,44.96
2023-05-09T23:38:01.013Z,45.08
2023-05-09T23:40:22.511Z,44.96
2023-05-09T23:42:43.955Z,45.16
2023-05-09T23:45:06.565Z,45.56
2023-05-09T23:47:28.032Z,45.74
2023-05-09T23:49:49.542Z,45.72
2023-05-09T23:52:11.147Z,45.43
2023-05-09T23:54:32.597Z,45.85
2023-05-09T23:56:56.348Z,46.66
2023-05-09T23:59:17.876Z,47.38
